Time;durP1;ratioP1;P1;durP2;ratioP2;P2;SDS_P1;SDS_P2;PMS_P1;PMS_P2;Temp;Humidity;BMP_temperature;BMP_pressure;BME280_temperature;BME280_humidity;BME280_pressure;Samples;Min_cycle;Max_cycle;Signal;HPM_P1;HPM_P2
2022/08/31 00:04:31;;;;;;;18.35;8.43;;;;;;;18.30;78.81;95897.97;4964125;28;20215;-79
2022/08/31 00:06:56;;;;;;;17.30;8.52;;;;;;;18.10;82.57;95894.28;4931496;28;20209;-80
2022/08/31 00:09:21;;;;;;;12.25;7.55;;;;;;;18.01;81.63;95895.41;4937762;28;20196;-80
2022/08/31 00:11:47;;;;;;;13.68;7.38;;;;;;;18.09;81.76;95892.66;4946538;28;20192;-80
2022/08/31 00:14:12;;;;;;;8.60;6.70;;;;;;;18.03;81.53;95902.13;4949195;28;20189;-80
2022/08/31 00:16:40;;;;;;;9.45;6.70;;;;;;;17.99;80.18;95900.03;4947132;28;20205;-80
2022/08/31 00:19:06;;;;;;;9.50;7.00;;;;;;;18.26;78.75;95912.47;4935098;28;20247;-80
2022/08/31 00:21:31;;;;;;;11.57;7.72;;;;;;;18.02;81.89;95911.00;4937084;28;20189;-80
2022/08/31 00:23:57;;;;;;;12.75;7.57;;;;;;;17.82;83.64;95902.88;4944448;28;20639;-80
2022/08/31 00:26:23;;;;;;;11.75;7.30;;;;;;;17.69;85.45;95892.19;4939385;28;20207;-80
2022/08/31 00:28:49;;;;;;;10.82;7.85;;;;;;;17.64;86.22;95896.34;4938153;28;20189;-80
2022/08/31 00:31:15;;;;;;;10.25;7.65;;;;;;;17.54;86.72;95894.81;4945859;28;20196;-80
2022/08/31 00:33:43;;;;;;;12.30;8.07;;;;;;;17.43;88.21;95889.22;4962704;28;20205;-80
2022/08/31 00:36:12;;;;;;;10.57;7.40;;;;;;;17.24;90.28;95891.41;4936438;28;20213;-80
2022/08/31 00:38:38;;;;;;;8.75;7.82;;;;;;;17.35;89.67;95889.31;4925330;28;20565;-80
2022/08/31 00:41:04;;;;;;;10.65;7.93;;;;;;;17.32;90.04;95889.69;4939201;28;20184;-80
2022/08/31 00:43:49;;;;;;;12.70;7.78;;;;;;;17.59;88.92;95889.03;4950867;28;20209;-80
2022/08/31 00:46:20;;;;;;;7.78;6.97;;;;;;;17.50;87.62;95872.56;4944997;28;20577;-80
2022/08/31 00:49:00;;;;;;;9.00;6.68;;;;;;;17.14;86.83;95879.50;4936962;28;20220;-81
2022/08/31 00:51:27;;;;;;;8.35;6.60;;;;;;;17.14;88.26;95877.72;4940551;28;20185;-81
2022/08/31 00:53:52;;;;;;;9.43;7.38;;;;;;;17.15;89.38;95875.91;4938128;28;20239;-81
2022/08/31 00:56:18;;;;;;;8.45;7.55;;;;;;;17.07;90.40;95878.63;4929902;28;20689;-81
2022/08/31 00:58:44;;;;;;;9.15;7.97;;;;;;;17.08;91.24;95872.38;4927793;28;20259;-82
2022/08/31 01:01:10;;;;;;;11.02;8.57;;;;;;;16.87;92.95;95866.03;4943522;29;20980;-82
2022/08/31 01:03:35;;;;;;;8.82;7.00;;;;;;;16.65;94.94;95857.16;4929060;28;20302;-79
2022/08/31 01:06:01;;;;;;;8.35;7.50;;;;;;;16.67;93.76;95857.00;4940063;28;20291;-80
2022/08/31 01:08:27;;;;;;;10.25;7.53;;;;;;;16.49;96.13;95857.31;4941020;28;20196;-81
2022/08/31 01:10:52;;;;;;;9.30;7.53;;;;;;;16.37;97.38;95853.47;4938360;28;20185;-80
2022/08/31 01:13:17;;;;;;;10.95;8.05;;;;;;;16.40;97.08;95840.81;4947349;28;20209;-80
2022/08/31 01:15:54;;;;;;;8.95;7.80;;;;;;;16.28;97.97;95844.06;4944176;28;20201;-80
2022/08/31 01:18:19;;;;;;;8.90;7.78;;;;;;;16.38;98.17;95837.56;4947577;28;20680;-80
2022/08/31 01:21:08;;;;;;;9.40;8.02;;;;;;;16.29;99.47;95840.44;4942839;28;20193;-82
2022/08/31 01:23:38;;;;;;;8.70;7.80;;;;;;;16.35;99.11;95837.94;4932838;28;20228;-82
2022/08/31 01:26:05;;;;;;;11.48;8.85;;;;;;;16.38;98.92;95842.00;4941784;28;20204;-81
2022/08/31 01:28:30;;;;;;;9.52;7.72;;;;;;;16.35;99.65;95837.13;4944483;28;20197;-81
2022/08/31 01:30:59;;;;;;;10.77;7.95;;;;;;;16.34;98.27;95846.78;4930597;28;20196;-82
2022/08/31 01:33:24;;;;;;;9.05;7.85;;;;;;;16.42;98.35;95843.25;4929383;28;20604;-80
2022/08/31 01:35:49;;;;;;;8.85;7.95;;;;;;;16.36;98.35;95838.75;4957733;28;20213;-81
2022/08/31 01:38:15;;;;;;;10.00;8.25;;;;;;;16.31;98.66;95833.22;4943584;28;20328;-81
2022/08/31 01:40:55;;;;;;;10.75;8.05;;;;;;;16.27;99.29;95839.81;4942001;28;20605;-82
2022/08/31 01:43:20;;;;;;;11.43;8.15;;;;;;;16.31;98.29;95838.44;4943657;28;20234;-79
2022/08/31 01:45:45;;;;;;;9.93;8.40;;;;;;;16.29;99.42;95837.81;4942809;28;20256;-80
2022/08/31 01:48:11;;;;;;;8.15;7.35;;;;;;;16.31;98.97;95830.59;4937905;28;20243;-81
2022/08/31 01:50:37;;;;;;;10.55;8.60;;;;;;;16.24;100.00;95834.91;4928480;28;20197;-80
2022/08/31 01:53:03;;;;;;;9.55;7.63;;;;;;;16.37;99.07;95829.91;4935347;28;20177;-82
2022/08/31 01:55:28;;;;;;;8.55;7.65;;;;;;;16.43;99.67;95834.41;4935199;28;20209;-82
2022/08/31 01:57:56;;;;;;;8.38;7.57;;;;;;;16.32;100.00;95837.47;4943472;28;20247;-82
2022/08/31 02:00:21;;;;;;;9.02;7.70;;;;;;;16.19;100.00;95832.81;4936515;28;20189;-80
2022/08/31 02:02:47;;;;;;;8.38;7.57;;;;;;;16.12;100.00;95832.69;4942360;28;20270;-81
2022/08/31 02:05:13;;;;;;;9.80;8.20;;;;;;;16.27;100.00;95832.75;4934708;28;20185;-80
2022/08/31 02:07:38;;;;;;;8.38;7.50;;;;;;;16.28;100.00;95825.72;4939355;28;20670;-80
2022/08/31 02:10:04;;;;;;;8.77;6.80;;;;;;;16.28;100.00;95823.91;4957009;28;20192;-80
2022/08/31 02:12:29;;;;;;;10.15;6.63;;;;;;;16.36;100.00;95815.97;4989027;28;20177;-81
2022/08/31 02:14:54;;;;;;;8.52;7.05;;;;;;;16.33;99.72;95818.13;4965512;28;20199;-82
2022/08/31 02:17:20;;;;;;;9.02;6.53;;;;;;;16.38;98.89;95815.78;4931303;29;20224;-81
2022/08/31 02:19:45;;;;;;;7.35;6.63;;;;;;;16.37;98.86;95816.78;4945516;28;20192;-81
2022/08/31 02:22:10;;;;;;;6.95;6.32;;;;;;;16.38;99.36;95818.41;4946321;28;20196;-82
2022/08/31 02:24:36;;;;;;;7.78;6.80;;;;;;;16.46;98.32;95822.78;4937533;28;20613;-82
2022/08/31 02:27:01;;;;;;;8.18;6.68;;;;;;;16.59;96.95;95830.84;4949981;28;20755;-81
2022/08/31 02:29:27;;;;;;;7.40;6.38;;;;;;;16.58;95.51;95827.41;4965981;28;20193;-82
2022/08/31 02:31:52;;;;;;;7.05;5.97;;;;;;;16.43;95.39;95834.41;4954932;28;20200;-82
2022/08/31 02:34:18;;;;;;;7.45;6.03;;;;;;;16.39;94.30;95828.72;4949278;28;20701;-81
2022/08/31 02:36:44;;;;;;;7.68;5.63;;;;;;;16.26;94.82;95838.19;4942037;28;20208;-82
2022/08/31 02:39:10;;;;;;;8.15;6.28;;;;;;;16.22;95.51;95834.25;4947758;28;20248;-81
2022/08/31 02:41:35;;;;;;;6.20;5.60;;;;;;;16.33;95.15;95828.59;4944513;28;20190;-81
2022/08/31 02:44:01;;;;;;;9.02;6.65;;;;;;;16.26;95.91;95825.91;4939078;28;20670;-80
2022/08/31 02:46:26;;;;;;;6.53;6.03;;;;;;;16.33;95.48;95832.03;4946032;28;20208;-81
2022/08/31 02:48:51;;;;;;;8.18;6.63;;;;;;;16.33;95.47;95839.91;4960656;28;20223;-80
2022/08/31 02:51:17;;;;;;;7.85;6.30;;;;;;;16.37;95.48;95835.13;4955172;28;20208;-81
2022/08/31 02:53:44;;;;;;;7.65;6.05;;;;;;;16.32;95.29;95843.50;4959009;28;20185;-81
2022/08/31 02:56:13;;;;;;;8.38;6.18;;;;;;;16.07;95.96;95832.38;4949402;28;20275;-81
2022/08/31 02:58:39;;;;;;;7.40;6.35;;;;;;;16.02;98.27;95826.06;4936234;28;20221;-80
2022/08/31 03:01:04;;;;;;;8.68;6.40;;;;;;;16.17;96.75;95823.47;4946471;28;20203;-81
2022/08/31 03:03:29;;;;;;;6.80;6.10;;;;;;;16.23;96.44;95822.78;4932853;28;20205;-81
2022/08/31 03:05:55;;;;;;;8.07;6.40;;;;;;;16.26;96.00;95811.97;4940660;28;20611;-81
2022/08/31 03:08:20;;;;;;;7.53;6.15;;;;;;;16.22;96.35;95806.25;4927869;28;20189;-80
2022/08/31 03:10:45;;;;;;;7.05;6.35;;;;;;;16.30;95.62;95813.25;4961414;28;20196;-81
2022/08/31 03:13:11;;;;;;;7.40;6.10;;;;;;;16.30;95.92;95797.50;4948275;28;20185;-81
2022/08/31 03:15:36;;;;;;;7.60;6.75;;;;;;;16.28;95.82;95800.31;4948722;28;20258;-81
2022/08/31 03:18:02;;;;;;;7.45;6.20;;;;;;;16.26;96.33;95796.25;4938806;28;20236;-81
2022/08/31 03:20:27;;;;;;;6.97;6.28;;;;;;;16.17;96.64;95800.75;4944162;28;20601;-80
2022/08/31 03:22:53;;;;;;;7.50;6.30;;;;;;;16.21;96.07;95799.38;4931075;28;20201;-81
2022/08/31 03:25:19;;;;;;;8.77;6.55;;;;;;;16.25;96.97;95789.34;4946735;28;20192;-81
2022/08/31 03:27:45;;;;;;;7.32;6.63;;;;;;;16.14;97.66;95788.78;4948767;28;20196;-80
2022/08/31 03:30:15;;;;;;;7.88;6.88;;;;;;;16.14;97.68;95788.78;4947658;28;20268;-81
2022/08/31 03:32:41;;;;;;;8.60;6.95;;;;;;;16.06;98.53;95783.63;4947845;28;20180;-81
2022/08/31 03:35:07;;;;;;;8.68;6.75;;;;;;;16.05;98.58;95779.38;4941268;28;20255;-81
2022/08/31 03:37:35;;;;;;;7.28;6.57;;;;;;;16.08;98.01;95768.56;4940972;28;20223;-81
2022/08/31 03:40:01;;;;;;;9.88;7.57;;;;;;;16.09;97.44;95770.19;4941645;28;20188;-81
2022/08/31 03:42:27;;;;;;;7.88;7.03;;;;;;;16.09;97.71;95780.66;4941378;28;20185;-81
2022/08/31 03:44:53;;;;;;;7.78;6.97;;;;;;;16.06;97.39;95775.75;4965714;28;20219;-81
2022/08/31 03:47:18;;;;;;;8.80;6.60;;;;;;;16.05;97.48;95774.13;4942019;28;20686;-81
2022/08/31 03:49:44;;;;;;;7.22;6.40;;;;;;;16.15;97.31;95771.25;4932046;28;20204;-80
2022/08/31 03:52:10;;;;;;;7.60;6.80;;;;;;;16.07;96.81;95777.38;4940580;28;20595;-81
2022/08/31 03:54:35;;;;;;;8.07;6.57;;;;;;;16.09;96.80;95785.91;4939762;28;20214;-80
2022/08/31 03:57:02;;;;;;;7.50;6.70;;;;;;;16.10;96.71;95792.75;4939205;28;20241;-81
2022/08/31 03:59:28;;;;;;;9.20;7.05;;;;;;;15.95;97.85;95781.41;4941609;28;20189;-81
2022/08/31 04:01:54;;;;;;;7.05;6.35;;;;;;;16.06;97.21;95801.94;4929646;28;20192;-82
2022/08/31 04:04:19;;;;;;;7.35;6.70;;;;;;;16.09;97.69;95801.63;4940698;28;20294;-80
2022/08/31 04:06:44;;;;;;;7.35;6.47;;;;;;;16.02;97.88;95795.44;4939669;28;20250;-81
2022/08/31 04:09:10;;;;;;;7.40;6.63;;;;;;;16.11;97.70;95796.19;4939639;28;20272;-80
2022/08/31 04:11:39;;;;;;;7.60;6.80;;;;;;;16.12;97.59;95806.50;4940674;28;20192;-81
2022/08/31 04:14:04;;;;;;;7.28;6.57;;;;;;;16.14;97.29;95814.19;4946224;28;20217;-80
2022/08/31 04:16:31;;;;;;;6.90;6.30;;;;;;;16.09;98.00;95801.63;4939479;28;20237;-82
2022/08/31 04:18:56;;;;;;;7.07;6.38;;;;;;;15.98;98.45;95809.06;4938547;28;20827;-81
2022/08/31 04:21:24;;;;;;;8.38;7.57;;;;;;;15.95;98.93;95812.84;4933202;28;20188;-81
2022/08/31 04:23:51;;;;;;;7.95;7.25;;;;;;;15.98;98.26;95804.63;4938561;28;20275;-81
2022/08/31 04:26:21;;;;;;;7.75;6.60;;;;;;;15.99;97.45;95808.91;4933785;28;20252;-81
2022/08/31 04:28:47;;;;;;;8.85;7.18;;;;;;;16.04;97.81;95803.13;4930534;28;20278;-80
2022/08/31 04:31:12;;;;;;;8.75;7.47;;;;;;;15.99;97.70;95787.94;4927477;28;20192;-80
2022/08/31 04:33:39;;;;;;;7.80;7.00;;;;;;;16.00;96.46;95797.44;4950413;28;20188;-81
2022/08/31 04:36:10;;;;;;;6.75;6.15;;;;;;;15.94;95.93;95785.03;4936772;28;20212;-81
2022/08/31 04:38:35;;;;;;;7.53;6.05;;;;;;;15.78;97.17;95791.19;4948041;28;20188;-81
2022/08/31 04:41:05;;;;;;;7.25;6.50;;;;;;;15.85;96.14;95786.06;4939558;28;20266;-81
2022/08/31 04:43:31;;;;;;;6.88;6.22;;;;;;;15.85;96.02;95788.69;4946865;28;20213;-81
2022/08/31 04:45:56;;;;;;;7.20;5.75;;;;;;;15.77;96.06;95786.94;4941038;28;20307;-81
2022/08/31 04:48:21;;;;;;;8.05;5.70;;;;;;;15.82;95.00;95778.56;4929631;28;20280;-81
2022/08/31 04:50:49;;;;;;;5.47;4.97;;;;;;;15.85;94.40;95780.84;4950572;28;20193;-80
2022/08/31 04:53:15;;;;;;;6.03;5.38;;;;;;;15.76;94.79;95792.34;4947444;28;20280;-81
2022/08/31 04:55:41;;;;;;;6.43;5.63;;;;;;;15.71;94.87;95808.56;4938946;28;20295;-80
2022/08/31 04:58:06;;;;;;;10.10;6.07;;;;;;;15.70;95.93;95816.59;4947396;28;20191;-79
2022/08/31 05:00:32;;;;;;;7.97;6.65;;;;;;;15.73;97.83;95829.38;4943447;29;20190;-81
2022/08/31 05:02:57;;;;;;;7.78;6.80;;;;;;;15.81;98.03;95858.94;4942526;28;20212;-80
2022/08/31 05:05:23;;;;;;;7.45;6.65;;;;;;;15.78;98.19;95855.81;4932439;28;20184;-80
2022/08/31 05:07:48;;;;;;;7.93;6.53;;;;;;;15.80;97.51;95849.41;4931162;28;20262;-80
2022/08/31 05:10:14;;;;;;;8.48;7.22;;;;;;;15.74;98.32;95860.59;4931858;28;20576;-79
2022/08/31 05:12:39;;;;;;;5.82;5.32;;;;;;;15.84;97.10;95863.81;4967881;28;20184;-79
2022/08/31 05:15:05;;;;;;;7.45;6.75;;;;;;;15.92;97.25;95862.97;4946537;28;20715;-80
2022/08/31 05:17:30;;;;;;;8.00;6.30;;;;;;;15.96;97.03;95869.47;4947171;28;20289;-82
2022/08/31 05:19:55;;;;;;;6.28;5.68;;;;;;;15.94;96.94;95868.84;4935082;28;20197;-81
2022/08/31 05:22:21;;;;;;;7.70;6.90;;;;;;;16.06;96.78;95877.91;4929469;28;20272;-81
2022/08/31 05:24:49;;;;;;;8.77;6.90;;;;;;;15.97;97.57;95871.09;4929090;28;20550;-81
2022/08/31 05:30:56;;;;;;;7.90;7.10;;;;;;;15.88;99.47;95887.84;4990725;28;20286;-80
2022/08/31 05:33:30;;;;;;;7.88;6.82;;;;;;;15.85;99.44;95880.34;4958044;28;20257;-81
2022/08/31 05:38:31;;;;;;;7.70;6.97;;;;;;;15.92;99.81;95898.81;4981166;28;20232;-81
2022/08/31 05:40:59;;;;;;;8.77;7.88;;;;;;;15.96;100.00;95897.47;4960739;28;20445;-81
2022/08/31 05:43:34;;;;;;;10.90;8.05;;;;;;;15.97;100.00;95892.06;4951789;28;20202;-81
2022/08/31 05:46:00;;;;;;;8.93;7.93;;;;;;;15.97;100.00;95901.72;4948251;28;20200;-81
2022/08/31 05:48:33;;;;;;;8.00;7.20;;;;;;;15.89;100.00;95899.94;4958035;28;20534;-81
2022/08/31 05:51:05;;;;;;;8.65;7.85;;;;;;;15.98;100.00;95903.34;4973501;28;20232;-80
2022/08/31 05:53:31;;;;;;;9.00;7.65;;;;;;;15.98;100.00;95906.78;4959127;28;20195;-80
2022/08/31 05:56:09;;;;;;;9.32;8.38;;;;;;;16.03;100.00;95907.09;4976300;28;20258;-80
2022/08/31 05:58:35;;;;;;;8.63;7.57;;;;;;;16.03;100.00;95907.09;4967870;28;20232;-80
2022/08/31 06:01:01;;;;;;;12.20;9.52;;;;;;;16.02;100.00;95907.25;4955332;28;20282;-82
2022/08/31 06:03:28;;;;;;;9.77;8.88;;;;;;;15.95;100.00;95908.94;4958049;28;20209;-81
2022/08/31 06:05:54;;;;;;;10.10;8.95;;;;;;;15.96;100.00;95911.38;4960933;28;20218;-81
2022/08/31 06:08:19;;;;;;;10.77;8.82;;;;;;;16.08;100.00;95915.25;4959094;28;20196;-81
2022/08/31 06:10:45;;;;;;;10.23;8.70;;;;;;;15.96;100.00;95913.19;4964811;28;20191;-81
2022/08/31 06:13:15;;;;;;;9.48;8.40;;;;;;;16.02;100.00;95910.69;4971209;28;20212;-80
2022/08/31 06:15:41;;;;;;;11.75;9.40;;;;;;;16.00;100.00;95917.09;4935626;28;20205;-81
2022/08/31 06:18:07;;;;;;;9.27;8.38;;;;;;;16.06;100.00;95926.88;4941906;28;20244;-81
2022/08/31 06:20:36;;;;;;;10.07;9.00;;;;;;;16.01;100.00;95927.41;4961682;28;20715;-81
2022/08/31 06:23:05;;;;;;;11.45;9.88;;;;;;;16.01;100.00;95932.66;4964513;28;20275;-81
2022/08/31 06:25:32;;;;;;;10.57;9.52;;;;;;;16.01;100.00;95935.25;4966797;28;20235;-81
2022/08/31 06:27:58;;;;;;;12.98;10.77;;;;;;;16.01;100.00;95935.25;4957221;28;20189;-80
2022/08/31 06:30:26;;;;;;;12.80;11.50;;;;;;;16.07;100.00;95928.50;4955153;28;20560;-81
2022/08/31 06:32:52;;;;;;;14.15;12.48;;;;;;;16.14;100.00;95930.25;4941171;28;20191;-81
2022/08/31 06:35:17;;;;;;;15.27;12.85;;;;;;;16.08;100.00;95932.78;4959203;28;20189;-81
2022/08/31 06:37:44;;;;;;;15.10;13.55;;;;;;;16.06;100.00;95925.06;4960259;28;20287;-82
2022/08/31 06:40:09;;;;;;;16.50;14.70;;;;;;;15.91;100.00;95921.56;4969891;28;20609;-81
2022/08/31 06:42:35;;;;;;;17.10;15.38;;;;;;;16.00;100.00;95923.16;4955370;28;20187;-81
2022/08/31 06:45:01;;;;;;;16.25;14.57;;;;;;;16.18;100.00;95919.47;4941619;28;20215;-81
2022/08/31 06:47:26;;;;;;;17.27;14.70;;;;;;;16.27;100.00;95919.22;4954075;28;20219;-82
2022/08/31 06:49:52;;;;;;;16.52;14.52;;;;;;;16.34;100.00;95914.09;4962042;28;20185;-81
2022/08/31 06:52:17;;;;;;;17.83;16.02;;;;;;;16.29;100.00;95919.06;4983702;28;20234;-81
2022/08/31 06:54:43;;;;;;;17.27;15.20;;;;;;;16.34;100.00;95919.34;4978033;28;20254;-82
2022/08/31 06:57:08;;;;;;;18.02;15.23;;;;;;;16.45;100.00;95924.19;4958537;28;20208;-81
2022/08/31 06:59:33;;;;;;;15.90;14.30;;;;;;;16.52;100.00;95921.66;4957194;28;20524;-81
2022/08/31 07:02:00;;;;;;;16.63;14.95;;;;;;;16.51;100.00;95926.09;4962948;28;20218;-81
2022/08/31 07:04:26;;;;;;;16.98;15.18;;;;;;;16.52;100.00;95929.53;4955184;28;20199;-82
2022/08/31 07:06:51;;;;;;;19.38;16.08;;;;;;;16.60;100.00;95930.28;4964778;28;20219;-80
2022/08/31 07:09:17;;;;;;;18.65;16.65;;;;;;;16.38;100.00;95934.56;4953146;28;20656;-81
2022/08/31 07:11:48;;;;;;;21.20;16.83;;;;;;;16.56;100.00;95934.25;4975766;28;20189;-81
2022/08/31 07:14:16;;;;;;;18.02;16.10;;;;;;;16.63;100.00;95926.53;4958012;28;20184;-80
2022/08/31 07:16:43;;;;;;;16.08;14.45;;;;;;;16.68;100.00;95937.28;4949562;28;20217;-81
2022/08/31 07:19:10;;;;;;;17.42;15.68;;;;;;;16.72;100.00;95933.38;4964631;28;20686;-81
2022/08/31 07:21:40;;;;;;;17.95;16.05;;;;;;;16.82;100.00;95941.81;4956558;28;20197;-80
2022/08/31 07:24:05;;;;;;;16.55;14.85;;;;;;;16.93;100.00;95941.38;4940998;28;20230;-80
2022/08/31 07:26:37;;;;;;;18.27;16.25;;;;;;;16.99;100.00;95937.22;4973469;28;20240;-80
2022/08/31 07:29:05;;;;;;;18.42;16.42;;;;;;;17.10;100.00;95923.69;4954679;28;20649;-81
2022/08/31 07:31:39;;;;;;;18.23;16.17;;;;;;;16.96;100.00;95919.19;4945979;28;20184;-80
2022/08/31 07:34:09;;;;;;;17.33;15.32;;;;;;;17.06;100.00;95919.78;4965269;28;20664;-81
2022/08/31 07:42:08;;;;;;;17.73;15.02;;;;;;;17.35;100.00;95933.94;4959042;28;20251;-81
2022/08/31 07:44:33;;;;;;;17.63;15.85;;;;;;;17.50;100.00;95934.75;4958916;28;20195;-81
2022/08/31 07:46:58;;;;;;;19.15;15.63;;;;;;;17.46;100.00;95936.09;4967257;28;20231;-81
2022/08/31 07:49:25;;;;;;;17.95;16.17;;;;;;;17.31;100.00;95928.22;4965549;28;20666;-81
2022/08/31 07:51:50;;;;;;;18.48;15.98;;;;;;;17.36;100.00;95938.19;4966204;28;20184;-80
2022/08/31 07:54:19;;;;;;;19.10;17.20;;;;;;;17.33;100.00;95941.19;4950155;28;20199;-80
2022/08/31 07:56:49;;;;;;;17.25;15.23;;;;;;;17.25;100.00;95945.50;4962709;28;20283;-80
2022/08/31 07:59:15;;;;;;;19.70;17.42;;;;;;;17.38;100.00;95951.94;4958321;28;20184;-81
2022/08/31 08:01:42;;;;;;;18.58;16.65;;;;;;;17.49;100.00;95951.50;4961712;28;20191;-81
2022/08/31 08:04:07;;;;;;;18.77;16.88;;;;;;;17.56;100.00;95955.84;4964132;28;20282;-81
2022/08/31 08:06:33;;;;;;;17.95;16.10;;;;;;;17.52;100.00;95951.16;4971013;28;20293;-80
2022/08/31 08:09:05;;;;;;;20.38;16.63;;;;;;;17.63;100.00;95955.94;4960085;28;20187;-81
2022/08/31 08:11:31;;;;;;;17.20;15.43;;;;;;;17.62;98.99;95951.69;4968141;28;20272;-80
2022/08/31 08:13:56;;;;;;;16.40;14.68;;;;;;;17.73;98.07;95951.25;4953828;28;20267;-80
2022/08/31 08:16:22;;;;;;;15.57;14.07;;;;;;;17.47;97.28;95954.31;4946609;28;20209;-80
2022/08/31 08:18:47;;;;;;;14.70;13.25;;;;;;;17.59;96.72;95957.31;4962998;28;20199;-80
2022/08/31 08:21:12;;;;;;;16.33;14.63;;;;;;;17.71;95.84;95965.56;4955607;28;20642;-80
2022/08/31 08:23:38;;;;;;;15.35;13.88;;;;;;;17.54;96.06;95964.91;4942099;28;20233;-82
2022/08/31 08:26:07;;;;;;;15.63;14.05;;;;;;;17.71;96.69;95966.38;4955821;28;20244;-81
2022/08/31 08:28:33;;;;;;;15.20;13.63;;;;;;;17.56;97.42;95962.91;4959741;28;20267;-80
2022/08/31 08:31:00;;;;;;;16.55;14.82;;;;;;;17.44;99.15;95964.34;4962703;28;20275;-80
2022/08/31 08:33:29;;;;;;;14.55;13.07;;;;;;;17.52;96.49;95967.72;4962889;28;20267;-81
2022/08/31 08:35:56;;;;;;;14.98;13.48;;;;;;;17.55;96.88;95971.78;4957179;28;20213;-80
2022/08/31 08:38:29;;;;;;;16.60;14.57;;;;;;;17.55;98.36;95971.78;4955040;28;20572;-80
2022/08/31 08:40:55;;;;;;;14.02;12.65;;;;;;;17.73;97.28;95980.16;4955171;28;20398;-80
2022/08/31 08:43:24;;;;;;;15.43;13.25;;;;;;;17.68;96.10;95976.41;4961378;28;20532;-81
2022/08/31 08:45:51;;;;;;;13.95;12.38;;;;;;;17.80;96.23;95980.25;4971058;28;20299;-81
2022/08/31 08:48:20;;;;;;;14.40;12.85;;;;;;;17.82;96.76;95978.25;4948791;28;20199;-81
2022/08/31 08:50:45;;;;;;;13.07;11.75;;;;;;;17.91;96.48;95981.59;4975583;28;20185;-80
2022/08/31 08:53:12;;;;;;;15.02;12.70;;;;;;;17.95;95.44;95977.63;4952914;28;20188;-81
2022/08/31 08:55:40;;;;;;;14.18;12.63;;;;;;;18.15;95.52;95986.56;4953017;28;20223;-81
2022/08/31 08:58:09;;;;;;;12.65;11.35;;;;;;;18.34;94.92;95990.41;4959977;28;20211;-81
2022/08/31 09:00:36;;;;;;;13.30;11.98;;;;;;;18.28;94.09;95991.16;4963972;28;20235;-81
2022/08/31 09:03:11;;;;;;;12.00;10.88;;;;;;;18.40;93.25;95992.31;4950930;28;20719;-81
2022/08/31 09:05:49;;;;;;;13.95;12.55;;;;;;;18.58;93.88;95999.78;4956974;28;20208;-81
2022/08/31 09:08:42;;;;;;;11.77;10.73;;;;;;;18.54;90.90;95998.50;4967178;28;20715;-80
2022/08/31 09:11:07;;;;;;;11.85;10.68;;;;;;;18.65;88.11;96001.53;4956087;28;20180;-81
2022/08/31 09:13:43;;;;;;;14.48;11.43;;;;;;;18.72;88.27;95992.88;4970630;28;20220;-81
2022/08/31 09:16:21;;;;;;;11.48;10.38;;;;;;;18.70;89.05;96002.78;4962412;28;20211;-80
2022/08/31 09:18:56;;;;;;;12.65;11.35;;;;;;;18.66;88.98;95997.06;4978302;28;20555;-82
2022/08/31 09:21:28;;;;;;;12.27;11.15;;;;;;;18.71;89.40;96002.56;4953693;28;20227;-81
2022/08/31 09:24:00;;;;;;;14.95;13.55;;;;;;;18.39;91.09;96007.28;4955337;28;20230;-81
2022/08/31 09:26:29;;;;;;;15.48;13.95;;;;;;;18.20;93.40;96002.59;4957174;28;20743;-80
2022/08/31 09:28:55;;;;;;;14.45;12.95;;;;;;;18.43;92.29;96001.63;4951148;28;20196;-81
2022/08/31 09:31:40;;;;;;;14.77;13.13;;;;;;;18.46;92.48;96007.31;4959820;28;20228;-80
2022/08/31 09:34:12;;;;;;;15.38;13.77;;;;;;;18.43;91.34;96004.28;4945545;28;20692;-78
2022/08/31 09:36:39;;;;;;;17.38;15.50;;;;;;;18.32;90.34;96002.94;4959835;28;20207;-80
2022/08/31 09:39:18;;;;;;;16.70;14.65;;;;;;;18.22;89.59;95994.53;4938527;28;20219;-81
2022/08/31 09:41:44;;;;;;;17.40;15.60;;;;;;;18.14;91.32;96002.50;4954455;28;20667;-82
2022/08/31 09:44:16;;;;;;;19.10;16.30;;;;;;;18.29;92.92;95998.88;4965443;28;20594;-81
2022/08/31 09:46:50;;;;;;;17.55;15.85;;;;;;;18.13;90.84;96001.69;4948552;28;20240;-81
2022/08/31 09:49:28;;;;;;;19.65;16.80;;;;;;;18.26;90.90;96004.47;4944272;28;20283;-81
2022/08/31 09:52:16;;;;;;;19.95;16.70;;;;;;;18.29;90.67;96006.75;4939632;28;20188;-80
2022/08/31 09:57:49;;;;;;;16.77;15.07;;;;;;;18.15;92.59;96010.22;4905279;29;20241;-81
2022/08/31 10:00:15;;;;;;;16.25;14.65;;;;;;;17.82;92.67;96012.41;4906187;29;20214;-81
2022/08/31 10:02:41;;;;;;;16.17;14.57;;;;;;;17.97;92.54;96004.53;4903431;29;20321;-81
2022/08/31 10:05:27;;;;;;;16.48;14.52;;;;;;;18.03;92.54;96009.06;4899487;29;20213;-82
2022/08/31 10:08:03;;;;;;;14.45;12.93;;;;;;;18.15;90.72;96007.59;4909476;29;20210;-81
2022/08/31 10:10:34;;;;;;;15.65;14.05;;;;;;;18.26;90.33;96007.09;4901807;29;20317;-81
2022/08/31 10:13:16;;;;;;;15.55;12.80;;;;;;;18.49;88.86;96008.78;4904476;29;20217;-81
2022/08/31 10:16:24;;;;;;;13.60;12.15;;;;;;;18.34;87.92;96004.38;4891241;29;20272;-81
2022/08/31 10:18:57;;;;;;;13.57;11.75;;;;;;;18.36;87.49;96015.50;4858949;29;20239;-80
2022/08/31 10:21:44;;;;;;;13.82;12.43;;;;;;;18.32;88.13;96023.97;4841042;29;20313;-81
2022/08/31 10:24:32;;;;;;;15.68;12.65;;;;;;;18.27;86.66;96021.88;4831399;29;20244;-79
2022/08/31 10:27:11;;;;;;;12.77;11.57;;;;;;;18.42;86.86;96024.50;4827771;29;20232;-81
2022/08/31 10:29:43;;;;;;;14.63;13.13;;;;;;;18.30;86.85;96016.28;4834783;29;20198;-80
2022/08/31 10:32:52;;;;;;;15.40;13.80;;;;;;;18.59;85.43;96019.81;4863753;29;20592;-80
2022/08/31 10:35:25;;;;;;;14.95;13.45;;;;;;;18.10;89.32;96015.19;4912680;29;20198;-78
2022/08/31 10:37:57;;;;;;;15.73;14.07;;;;;;;18.61;87.44;96018.63;4905950;29;20288;-80
2022/08/31 10:40:32;;;;;;;14.43;12.93;;;;;;;18.82;85.45;96014.44;4917203;29;20655;-81
2022/08/31 10:43:08;;;;;;;13.45;11.95;;;;;;;19.03;81.09;96011.00;4902860;29;20193;-81
2022/08/31 10:45:41;;;;;;;14.23;12.75;;;;;;;19.02;77.17;96007.53;4920807;29;20268;-81
2022/08/31 10:48:09;;;;;;;13.48;12.07;;;;;;;18.48;80.01;96017.69;4903531;29;20261;-80
2022/08/31 10:50:43;;;;;;;15.40;12.25;;;;;;;18.91;80.60;96014.13;4896179;29;20249;-80
2022/08/31 10:53:21;;;;;;;15.82;13.07;;;;;;;18.47;82.99;96018.69;4900257;28;20196;-81
2022/08/31 10:55:57;;;;;;;16.92;12.30;;;;;;;18.43;79.94;96014.78;4975192;28;20204;-80
2022/08/31 10:58:39;;;;;;;14.68;12.55;;;;;;;18.77;81.81;96017.63;4965102;28;20210;-81
2022/08/31 11:01:16;;;;;;;15.18;12.68;;;;;;;19.19;77.65;96008.91;4950525;28;20262;-81
2022/08/31 11:03:54;;;;;;;12.65;11.35;;;;;;;19.44;76.58;96011.94;4935464;28;20220;-80
2022/08/31 11:06:29;;;;;;;14.60;11.60;;;;;;;19.41;74.77;96011.50;4962411;28;20216;-80
2022/08/31 11:09:02;;;;;;;13.88;11.35;;;;;;;19.31;76.21;96013.66;4954651;28;20184;-82
2022/08/31 11:11:38;;;;;;;16.90;13.15;;;;;;;19.15;76.78;96012.91;4957277;28;20578;-80
2022/08/31 11:14:22;;;;;;;13.15;11.85;;;;;;;19.49;74.68;96014.00;4948449;28;20195;-80
2022/08/31 11:16:59;;;;;;;12.60;11.40;;;;;;;19.72;74.51;96014.59;4941627;28;20216;-81
2022/08/31 11:19:50;;;;;;;20.63;13.23;;;;;;;19.25;74.94;96018.66;4971073;28;20188;-81
2022/08/31 11:22:37;;;;;;;15.82;13.20;;;;;;;19.17;79.24;96015.34;4972245;28;20188;-81
2022/08/31 11:25:23;;;;;;;15.43;12.90;;;;;;;19.68;74.42;96017.81;4957092;28;20207;-82
2022/08/31 11:27:58;;;;;;;15.57;13.57;;;;;;;19.82;77.25;96016.88;4978363;28;20720;-80
2022/08/31 11:30:27;;;;;;;13.70;12.27;;;;;;;20.17;75.18;96016.88;4963849;28;20550;-81
2022/08/31 11:32:59;;;;;;;16.17;13.27;;;;;;;20.28;75.61;96025.03;4964714;28;20275;-80
2022/08/31 11:35:46;;;;;;;16.00;14.30;;;;;;;20.46;72.88;96016.63;4939450;28;20237;-80
2022/08/31 11:38:50;;;;;;;14.43;12.90;;;;;;;20.15;73.38;96016.28;4957639;28;20192;-81
2022/08/31 11:41:38;;;;;;;14.63;12.82;;;;;;;20.36;72.22;96018.78;4964315;28;20247;-80
2022/08/31 11:44:07;;;;;;;13.18;11.98;;;;;;;20.55;72.10;96014.63;4975218;28;20268;-80
2022/08/31 11:46:32;;;;;;;13.85;12.63;;;;;;;20.47;74.49;96015.59;4944163;28;20243;-80
2022/08/31 11:48:58;;;;;;;13.95;11.80;;;;;;;20.36;70.84;96016.97;4976180;28;20197;-81
2022/08/31 11:51:41;;;;;;;15.13;13.52;;;;;;;20.46;72.63;96006.06;4959903;28;20211;-78